Time;durP1;ratioP1;P1;durP2;ratioP2;P2;SDS_P1;SDS_P2;PMS_P1;PMS_P2;Temp;Humidity;BMP_temperature;BMP_pressure;BME280_temperature;BME280_humidity;BME280_pressure;Samples;Min_cycle;Max_cycle;Signal;HPM_P1;HPM_P2
2023/11/08 00:02:07;;;;;;;2.67;1.52;;;6.50;1.00;;;;;;7382752;19;20011;-72
2023/11/08 00:04:38;;;;;;;5.95;1.40;;;6.50;1.00;;;;;;7382088;19;20018;-71
2023/11/08 00:07:09;;;;;;;3.97;1.50;;;6.40;1.00;;;;;;7383307;19;20098;-71
2023/11/08 00:09:39;;;;;;;4.82;1.35;;;6.50;1.00;;;;;;7381515;19;20120;-72
2023/11/08 00:12:12;;;;;;;2.85;1.45;;;6.50;1.00;;;;;;7382971;19;20424;-72
2023/11/08 00:14:46;;;;;;;3.95;1.10;;;6.50;1.00;;;;;;7380493;19;20010;-72
2023/11/08 00:17:16;;;;;;;4.88;1.50;;;6.50;1.00;;;;;;7380834;19;20098;-72
2023/11/08 00:19:46;;;;;;;2.95;1.20;;;6.50;1.00;;;;;;7381003;19;20337;-72
2023/11/08 00:22:16;;;;;;;8.57;1.80;;;6.50;1.00;;;;;;7381001;19;20021;-72
2023/11/08 00:24:49;;;;;;;4.30;1.55;;;6.60;1.00;;;;;;7382197;19;20010;-73
2023/11/08 00:27:23;;;;;;;2.15;1.35;;;6.60;1.00;;;;;;7381399;19;20011;-70
2023/11/08 00:29:53;;;;;;;4.57;1.67;;;6.70;1.00;;;;;;7381328;19;20017;-71
2023/11/08 00:32:24;;;;;;;3.30;1.55;;;6.80;1.00;;;;;;7381286;19;20023;-72
2023/11/08 00:34:54;;;;;;;6.45;2.22;;;7.00;1.00;;;;;;7379682;19;20023;-72
2023/11/08 00:37:24;;;;;;;4.78;1.70;;;7.10;1.00;;;;;;7380801;19;20485;-72
2023/11/08 00:39:54;;;;;;;4.07;1.20;;;7.10;1.00;;;;;;7380061;19;20051;-72
2023/11/08 00:42:26;;;;;;;4.00;1.10;;;7.20;1.00;;;;;;7381143;19;20388;-72
2023/11/08 00:44:56;;;;;;;4.43;1.20;;;7.20;1.00;;;;;;7379611;19;20015;-72
2023/11/08 00:47:26;;;;;;;4.80;1.38;;;7.30;1.00;;;;;;7381007;19;20077;-72
2023/11/08 00:49:56;;;;;;;2.08;0.98;;;7.40;1.00;;;;;;7381717;19;20015;-72
2023/11/08 00:52:27;;;;;;;3.50;1.02;;;7.60;1.00;;;;;;7380241;19;20019;-72
2023/11/08 00:54:57;;;;;;;5.50;1.33;;;7.60;1.00;;;;;;7379771;19;20021;-72
2023/11/08 00:57:30;;;;;;;9.48;2.58;;;7.60;1.00;;;;;;7380966;19;20029;-72
2023/11/08 01:00:00;;;;;;;4.65;1.30;;;7.70;1.00;;;;;;7381043;19;20014;-72
2023/11/08 01:02:31;;;;;;;2.35;1.20;;;7.60;1.00;;;;;;7380444;19;20018;-72
2023/11/08 01:05:01;;;;;;;3.47;1.25;;;7.70;1.00;;;;;;7380014;19;20011;-72
2023/11/08 01:07:32;;;;;;;4.07;1.27;;;7.70;1.00;;;;;;7379993;19;20030;-73
2023/11/08 01:10:02;;;;;;;3.70;1.38;;;7.60;1.00;;;;;;7380025;19;20366;-72
2023/11/08 01:12:35;;;;;;;3.75;1.23;;;7.60;1.00;;;;;;7380115;19;20003;-72
2023/11/08 01:15:08;;;;;;;2.58;0.88;;;7.60;1.00;;;;;;7379713;19;20053;-72
2023/11/08 01:17:39;;;;;;;4.03;1.33;;;7.50;1.00;;;;;;7379973;19;20017;-71
2023/11/08 01:20:10;;;;;;;6.50;1.40;;;7.40;1.00;;;;;;7380739;19;20035;-72
2023/11/08 01:22:41;;;;;;;3.55;1.60;;;7.30;1.00;;;;;;7381953;19;20064;-73
2023/11/08 01:25:12;;;;;;;3.63;1.10;;;7.20;1.00;;;;;;7376481;19;20006;-72
2023/11/08 01:27:45;;;;;;;5.85;1.85;;;7.20;1.00;;;;;;7378428;19;20500;-72
2023/11/08 01:30:17;;;;;;;5.55;1.58;;;7.20;1.00;;;;;;7377808;19;20011;-72
2023/11/08 01:32:47;;;;;;;5.38;1.33;;;7.20;1.00;;;;;;7380487;19;20007;-72
2023/11/08 01:35:18;;;;;;;3.85;1.35;;;7.20;1.00;;;;;;7379601;19;20013;-72
2023/11/08 01:37:48;;;;;;;4.90;1.25;;;7.10;1.00;;;;;;7380884;19;20025;-72
2023/11/08 01:40:20;;;;;;;4.13;1.40;;;7.00;1.00;;;;;;7380289;19;20030;-73
2023/11/08 01:42:53;;;;;;;5.40;1.67;;;7.00;1.00;;;;;;7380240;19;20006;-72
2023/11/08 01:45:23;;;;;;;3.40;1.23;;;6.90;1.00;;;;;;7378281;19;20493;-72
2023/11/08 01:47:53;;;;;;;3.58;1.55;;;6.90;1.00;;;;;;7378299;19;20002;-72
2023/11/08 01:50:24;;;;;;;2.90;1.20;;;6.80;1.00;;;;;;7378264;19;20021;-72
2023/11/08 01:52:54;;;;;;;3.88;1.50;;;6.80;1.00;;;;;;7378751;19;20006;-72
2023/11/08 01:55:24;;;;;;;2.72;1.48;;;6.80;1.00;;;;;;7376718;19;20010;-71
2023/11/08 01:57:59;;;;;;;4.55;1.30;;;6.70;1.00;;;;;;7379296;19;20014;-71
2023/11/08 02:00:32;;;;;;;2.38;1.35;;;6.60;1.00;;;;;;7379757;19;20007;-71
2023/11/08 02:03:04;;;;;;;3.42;1.52;;;6.50;1.00;;;;;;7380339;19;20126;-72
2023/11/08 02:05:34;;;;;;;2.17;1.30;;;6.50;1.00;;;;;;7378124;19;20006;-71
2023/11/08 02:08:05;;;;;;;4.47;1.73;;;6.40;1.00;;;;;;7379467;19;20413;-71
2023/11/08 02:10:36;;;;;;;5.47;1.73;;;6.40;1.00;;;;;;7379050;19;20039;-71
2023/11/08 02:13:12;;;;;;;2.95;1.40;;;6.40;1.00;;;;;;7377316;19;20010;-72
2023/11/08 02:15:42;;;;;;;4.00;1.40;;;6.30;1.00;;;;;;7377419;19;20022;-71
2023/11/08 02:18:11;;;;;;;2.85;1.45;;;6.20;1.00;;;;;;7380466;19;20014;-71
2023/11/08 02:20:41;;;;;;;3.67;1.42;;;6.20;1.00;;;;;;7377519;19;20015;-72
2023/11/08 02:23:11;;;;;;;6.00;1.58;;;6.30;1.00;;;;;;7378013;19;20031;-71
2023/11/08 02:25:43;;;;;;;2.42;1.63;;;6.20;1.00;;;;;;7377302;19;20082;-71
2023/11/08 02:28:14;;;;;;;4.28;1.23;;;6.30;1.00;;;;;;7379674;19;20010;-71
2023/11/08 02:30:43;;;;;;;2.38;1.00;;;6.30;1.00;;;;;;7377628;19;20010;-71
2023/11/08 02:33:16;;;;;;;2.28;1.25;;;6.30;1.00;;;;;;7375250;19;20011;-71
2023/11/08 02:35:47;;;;;;;2.15;1.10;;;6.20;1.00;;;;;;7378747;19;20043;-71
2023/11/08 02:38:17;;;;;;;2.53;0.98;;;6.20;1.00;;;;;;7378761;19;20031;-72
2023/11/08 02:40:50;;;;;;;3.75;1.48;;;6.20;1.00;;;;;;7380262;19;20542;-70
2023/11/08 02:43:20;;;;;;;1.10;1.00;;;6.20;1.00;;;;;;7381645;19;20120;-71
2023/11/08 02:45:50;;;;;;;2.45;1.10;;;6.20;1.00;;;;;;7377397;19;20014;-70
2023/11/08 02:48:21;;;;;;;3.50;0.93;;;6.20;1.00;;;;;;7377131;19;20015;-71
2023/11/08 02:50:51;;;;;;;3.38;0.95;;;6.30;1.00;;;;;;7377750;19;20031;-70
2023/11/08 02:53:22;;;;;;;2.80;0.95;;;6.30;1.00;;;;;;7378660;19;20474;-71
2023/11/08 02:55:54;;;;;;;3.03;1.00;;;6.30;1.00;;;;;;7376717;19;20013;-72
2023/11/08 02:58:24;;;;;;;1.48;0.88;;;6.30;1.00;;;;;;7376268;19;20081;-72
2023/11/08 03:00:56;;;;;;;1.52;0.93;;;6.30;1.00;;;;;;7376511;19;20425;-72
2023/11/08 03:03:26;;;;;;;1.48;0.75;;;6.30;1.00;;;;;;7375392;19;20018;-71
2023/11/08 03:05:57;;;;;;;2.45;0.90;;;6.40;1.00;;;;;;7378434;19;20019;-71
2023/11/08 03:08:27;;;;;;;1.85;0.90;;;6.40;1.00;;;;;;7376949;19;20014;-71
2023/11/08 03:10:59;;;;;;;0.93;0.70;;;6.30;1.00;;;;;;7377360;19;20097;-72
2023/11/08 03:13:29;;;;;;;3.40;0.82;;;6.40;1.00;;;;;;7375184;19;20028;-71
2023/11/08 03:15:59;;;;;;;3.88;1.00;;;6.40;1.00;;;;;;7376715;19;20074;-71
2023/11/08 03:18:33;;;;;;;2.20;0.82;;;6.40;1.00;;;;;;7376777;19;20085;-72
2023/11/08 03:21:03;;;;;;;3.10;1.15;;;6.40;1.00;;;;;;7377829;19;20022;-71
2023/11/08 03:23:33;;;;;;;1.17;0.80;;;6.40;1.00;;;;;;7375873;19;20015;-70
2023/11/08 03:26:05;;;;;;;3.03;1.00;;;6.50;1.00;;;;;;7376905;19;20044;-70
2023/11/08 03:28:35;;;;;;;1.38;0.82;;;6.50;1.00;;;;;;7377254;19;20040;-71
2023/11/08 03:31:07;;;;;;;3.90;1.35;;;6.40;1.00;;;;;;7375370;19;20015;-72
2023/11/08 03:33:38;;;;;;;3.20;1.00;;;6.30;1.00;;;;;;7376134;19;20518;-71
2023/11/08 03:36:08;;;;;;;2.33;1.27;;;6.30;1.00;;;;;;7375160;19;20022;-71
2023/11/08 03:38:39;;;;;;;2.20;1.02;;;6.30;1.00;;;;;;7377007;19;20098;-72
2023/11/08 03:41:11;;;;;;;3.40;1.23;;;6.30;1.00;;;;;;7374159;19;20363;-72
2023/11/08 03:43:41;;;;;;;2.83;1.00;;;6.30;1.00;;;;;;7375224;19;20022;-72
2023/11/08 03:46:11;;;;;;;4.53;1.63;;;6.30;1.00;;;;;;7375744;19;20026;-71
2023/11/08 03:48:41;;;;;;;2.17;0.98;;;6.30;1.00;;;;;;7376318;19;20014;-71
2023/11/08 03:51:11;;;;;;;3.83;1.13;;;6.40;1.00;;;;;;7375735;19;20384;-72
2023/11/08 03:53:41;;;;;;;4.35;1.20;;;6.40;1.00;;;;;;7373343;19;20032;-72
2023/11/08 03:56:13;;;;;;;3.47;1.30;;;6.40;1.00;;;;;;7376283;19;20027;-71
2023/11/08 03:58:43;;;;;;;2.65;1.20;;;6.40;1.00;;;;;;7375964;19;20010;-72
2023/11/08 04:01:14;;;;;;;2.45;1.20;;;6.50;1.00;;;;;;7372214;19;20011;-71
2023/11/08 04:03:44;;;;;;;3.88;1.23;;;6.50;1.00;;;;;;7373360;19;20485;-71
2023/11/08 04:06:14;;;;;;;4.05;1.65;;;6.50;1.00;;;;;;7374323;19;20006;-72
2023/11/08 04:08:44;;;;;;;2.38;1.00;;;6.50;1.00;;;;;;7374850;19;20014;-72
2023/11/08 04:11:16;;;;;;;3.10;2.00;;;6.50;1.00;;;;;;7382371;19;20370;-71
2023/11/08 04:13:49;;;;;;;5.03;1.50;;;6.60;1.00;;;;;;7381963;19;20066;-70
2023/11/08 04:16:19;;;;;;;4.53;1.70;;;6.60;1.00;;;;;;7378979;19;20010;-71
2023/11/08 04:18:49;;;;;;;4.18;1.48;;;6.60;1.00;;;;;;7374738;19;20032;-76
2023/11/08 04:21:20;;;;;;;2.88;1.40;;;6.70;1.00;;;;;;7383641;19;20459;-71
2023/11/08 04:23:50;;;;;;;3.47;1.33;;;6.70;1.00;;;;;;7379894;19;20011;-71
2023/11/08 04:26:23;;;;;;;2.70;1.38;;;6.80;1.00;;;;;;7381823;19;20010;-71
2023/11/08 04:28:55;;;;;;;4.65;1.42;;;6.80;1.00;;;;;;7380063;19;20910;-72
2023/11/08 04:31:25;;;;;;;4.30;1.40;;;6.80;1.00;;;;;;7378679;19;20398;-72
2023/11/08 04:33:55;;;;;;;5.28;1.35;;;6.90;1.00;;;;;;7381170;19;20074;-72
2023/11/08 04:36:26;;;;;;;4.72;1.30;;;6.90;1.00;;;;;;7380208;19;20093;-71
2023/11/08 04:38:58;;;;;;;4.03;1.23;;;6.80;1.00;;;;;;7380770;19;20110;-71
2023/11/08 04:41:31;;;;;;;4.95;1.27;;;6.90;1.00;;;;;;7380598;19;20022;-71
2023/11/08 04:44:01;;;;;;;2.95;1.10;;;6.90;1.00;;;;;;7381303;19;20071;-71
2023/11/08 04:46:31;;;;;;;5.53;1.35;;;7.00;1.00;;;;;;7382662;19;19998;-71
2023/11/08 04:49:01;;;;;;;3.17;1.40;;;7.00;1.00;;;;;;7381952;19;20019;-71
2023/11/08 04:51:31;;;;;;;6.25;1.73;;;7.10;1.00;;;;;;7381502;19;20039;-72
2023/11/08 04:54:01;;;;;;;5.93;1.63;;;7.10;1.00;;;;;;7381707;19;20007;-72
2023/11/08 04:56:34;;;;;;;1.98;1.40;;;7.10;1.00;;;;;;7382234;19;20039;-72
2023/11/08 04:59:05;;;;;;;2.60;1.25;;;7.00;1.00;;;;;;7381834;19;20037;-72
2023/11/08 05:01:37;;;;;;;5.78;1.40;;;7.00;1.00;;;;;;7376720;19;20011;-71
2023/11/08 05:04:07;;;;;;;5.28;1.92;;;7.00;1.00;;;;;;7379831;19;20057;-72
2023/11/08 05:06:37;;;;;;;4.32;1.40;;;7.00;1.00;;;;;;7381187;19;20810;-71
2023/11/08 05:09:07;;;;;;;5.72;1.50;;;6.90;1.00;;;;;;7381353;19;20377;-72
2023/11/08 05:11:40;;;;;;;2.72;1.40;;;7.00;1.00;;;;;;7381210;19;20006;-71
2023/11/08 05:14:11;;;;;;;4.53;1.48;;;7.00;1.00;;;;;;7380905;19;20503;-71
2023/11/08 05:16:41;;;;;;;4.68;1.55;;;6.90;1.00;;;;;;7380381;19;20017;-72
2023/11/08 05:19:11;;;;;;;2.65;1.88;;;6.80;1.00;;;;;;7380278;19;20014;-72
2023/11/08 05:21:42;;;;;;;4.47;1.50;;;6.80;1.00;;;;;;7378013;19;20020;-71
2023/11/08 05:24:12;;;;;;;3.22;1.15;;;6.80;1.00;;;;;;7376409;19;20010;-72
2023/11/08 05:26:45;;;;;;;3.67;1.20;;;6.80;1.00;;;;;;7366834;19;20010;-72
2023/11/08 05:29:15;;;;;;;6.20;1.52;;;6.80;1.00;;;;;;7369667;19;20034;-71
2023/11/08 05:31:45;;;;;;;6.78;1.63;;;6.80;1.00;;;;;;7366442;19;20515;-71
2023/11/08 05:34:15;;;;;;;2.88;1.30;;;6.80;1.00;;;;;;7362860;19;20018;-72
2023/11/08 05:36:45;;;;;;;4.43;1.30;;;6.80;1.00;;;;;;7367958;19;21275;-72
2023/11/08 05:39:22;;;;;;;3.10;1.42;;;6.70;1.00;;;;;;7368834;19;20098;-71
2023/11/08 05:41:58;;;;;;;4.72;1.42;;;6.70;1.00;;;;;;7368602;19;20006;-72
2023/11/08 05:44:27;;;;;;;2.55;1.38;;;6.70;1.00;;;;;;7365923;19;20006;-73
2023/11/08 05:46:58;;;;;;;3.60;1.73;;;6.70;1.00;;;;;;7368251;19;20069;-72
2023/11/08 05:49:28;;;;;;;4.22;1.35;;;6.70;1.00;;;;;;7368701;19;20418;-72
2023/11/08 05:51:58;;;;;;;3.38;1.40;;;6.80;1.00;;;;;;7367399;19;20010;-72
2023/11/08 05:54:29;;;;;;;3.33;1.40;;;6.90;1.00;;;;;;7365510;19;20006;-73
2023/11/08 05:57:01;;;;;;;5.40;1.25;;;6.80;1.00;;;;;;7372966;19;20014;-72
2023/11/08 05:59:31;;;;;;;2.60;1.20;;;6.80;1.00;;;;;;7378330;19;20085;-72
2023/11/08 06:02:01;;;;;;;2.53;1.40;;;6.80;1.00;;;;;;7378892;19;20449;-72
2023/11/08 06:04:31;;;;;;;4.05;1.63;;;6.80;1.00;;;;;;7383703;19;20062;-71
2023/11/08 06:07:01;;;;;;;3.97;1.58;;;6.90;1.00;;;;;;7380033;19;20090;-72
2023/11/08 06:09:31;;;;;;;5.38;1.73;;;6.90;1.00;;;;;;7378516;19;20033;-73
2023/11/08 06:12:05;;;;;;;4.20;1.60;;;7.00;1.00;;;;;;7379656;19;20043;-72
2023/11/08 06:14:35;;;;;;;3.80;1.60;;;7.00;1.00;;;;;;7378180;19;20411;-73
2023/11/08 06:17:06;;;;;;;4.38;1.60;;;7.00;1.00;;;;;;7380567;19;20094;-72
2023/11/08 06:19:36;;;;;;;2.78;1.42;;;7.00;1.00;;;;;;7379072;19;20508;-71
2023/11/08 06:22:06;;;;;;;2.80;1.80;;;7.00;1.00;;;;;;7379376;19;20020;-72
2023/11/08 06:24:36;;;;;;;5.07;1.95;;;7.00;1.00;;;;;;7378669;19;20098;-72
2023/11/08 06:27:09;;;;;;;4.80;1.70;;;7.00;1.00;;;;;;7380790;19;20036;-71
2023/11/08 06:29:39;;;;;;;5.93;1.98;;;7.00;1.00;;;;;;7380994;19;19998;-72
2023/11/08 06:32:10;;;;;;;3.25;1.30;;;7.00;1.00;;;;;;7377735;19;20022;-72
2023/11/08 06:34:42;;;;;;;2.72;1.40;;;7.00;1.00;;;;;;7377818;19;20014;-71
2023/11/08 06:37:13;;;;;;;4.18;1.55;;;7.00;1.00;;;;;;7377048;19;20357;-72
2023/11/08 06:39:43;;;;;;;5.65;1.70;;;6.90;1.00;;;;;;7377516;19;20102;-72
2023/11/08 06:42:16;;;;;;;2.92;1.50;;;6.90;1.00;;;;;;7377534;19;20010;-73
2023/11/08 06:44:47;;;;;;;3.63;1.48;;;6.90;1.00;;;;;;7376873;19;20010;-72
2023/11/08 06:47:18;;;;;;;2.25;1.48;;;6.90;1.00;;;;;;7377953;19;20488;-72
2023/11/08 06:49:48;;;;;;;5.50;1.55;;;6.90;1.00;;;;;;7377179;19;20475;-72
2023/11/08 06:52:18;;;;;;;3.03;2.00;;;7.00;1.00;;;;;;7376048;19;20025;-73
2023/11/08 06:54:48;;;;;;;2.50;1.33;;;7.00;1.00;;;;;;7377121;19;20820;-72
2023/11/08 06:57:20;;;;;;;5.70;1.60;;;7.00;1.00;;;;;;7377188;19;20030;-72
2023/11/08 06:59:51;;;;;;;4.43;1.85;;;7.00;1.00;;;;;;7378516;19;20101;-73
2023/11/08 07:02:21;;;;;;;3.05;1.30;;;7.00;1.00;;;;;;7377582;19;20010;-72
2023/11/08 07:04:51;;;;;;;3.60;1.92;;;6.90;1.00;;;;;;7377064;19;22974;-72
2023/11/08 07:07:21;;;;;;;3.55;1.88;;;6.90;1.00;;;;;;7377764;19;21249;-72
2023/11/08 07:09:54;;;;;;;4.10;1.90;;;6.90;1.00;;;;;;7378343;19;20003;-72
2023/11/08 07:12:26;;;;;;;3.42;1.60;;;6.90;1.00;;;;;;7377398;19;19999;-72
2023/11/08 07:14:59;;;;;;;4.43;1.40;;;7.00;1.00;;;;;;7371701;19;20010;-71
2023/11/08 07:17:29;;;;;;;4.70;1.63;;;7.10;1.00;;;;;;7374217;19;20022;-72
2023/11/08 07:20:01;;;;;;;4.68;2.53;;;7.10;1.00;;;;;;7376020;19;20081;-72
2023/11/08 07:22:31;;;;;;;6.72;1.92;;;7.10;1.00;;;;;;7377491;19;20097;-71
2023/11/08 07:25:01;;;;;;;3.40;1.70;;;7.20;1.00;;;;;;7376787;19;20019;-72
2023/11/08 07:27:35;;;;;;;3.25;1.60;;;7.20;1.00;;;;;;7376427;19;20078;-72
2023/11/08 07:30:06;;;;;;;3.45;2.17;;;7.30;1.00;;;;;;7377981;19;20010;-71
2023/11/08 07:32:39;;;;;;;6.20;1.80;;;7.30;1.00;;;;;;7375735;19;20557;-72
2023/11/08 07:35:10;;;;;;;4.30;2.00;;;7.40;1.00;;;;;;7376251;19;20014;-71
2023/11/08 07:37:41;;;;;;;5.78;1.85;;;7.50;1.00;;;;;;7376076;19;20032;-71
2023/11/08 07:40:14;;;;;;;4.13;1.70;;;7.50;1.00;;;;;;7377653;19;20498;-72
2023/11/08 07:42:46;;;;;;;4.53;1.73;;;7.60;1.00;;;;;;7375191;19;20023;-71
2023/11/08 07:45:16;;;;;;;4.78;1.88;;;7.70;1.00;;;;;;7378324;19;20017;-71
2023/11/08 07:47:46;;;;;;;2.03;1.65;;;7.80;1.00;;;;;;7382886;19;20007;-71
2023/11/08 07:50:17;;;;;;;2.63;1.60;;;7.90;1.00;;;;;;7379601;19;20014;-71
2023/11/08 07:52:47;;;;;;;5.32;1.85;;;8.00;1.00;;;;;;7381872;19;20036;-71
2023/11/08 07:55:17;;;;;;;4.18;2.00;;;8.00;1.00;;;;;;7381047;19;20449;-71
2023/11/08 07:57:50;;;;;;;4.88;2.10;;;8.10;1.00;;;;;;7381192;19;20007;-71
2023/11/08 08:00:22;;;;;;;4.25;1.60;;;8.20;1.00;;;;;;7381206;19;20014;-71
2023/11/08 08:02:53;;;;;;;6.65;2.00;;;8.20;1.00;;;;;;7381778;19;20045;-71
2023/11/08 08:05:23;;;;;;;5.70;2.10;;;8.30;1.00;;;;;;7381309;19;20010;-72
2023/11/08 08:07:53;;;;;;;4.43;1.80;;;8.50;1.00;;;;;;7379970;19;20011;-72
2023/11/08 08:10:25;;;;;;;4.63;1.42;;;8.60;1.00;;;;;;7381264;19;20062;-72
2023/11/08 08:12:58;;;;;;;5.25;1.83;;;8.60;1.00;;;;;;7380830;19;20019;-71
2023/11/08 08:15:28;;;;;;;5.68;1.90;;;8.60;1.00;;;;;;7380494;19;20415;-71
2023/11/08 08:17:58;;;;;;;10.15;1.77;;;8.60;1.00;;;;;;7383141;19;20021;-71
2023/11/08 08:20:28;;;;;;;3.47;1.63;;;8.70;1.00;;;;;;7382716;19;20378;-72
2023/11/08 08:22:58;;;;;;;17.00;10.48;;;8.70;1.00;;;;;;7381380;19;20003;-72
2023/11/08 08:25:28;;;;;;;2.42;1.13;;;8.90;1.00;;;;;;7381955;19;20448;-71
2023/11/08 08:28:01;;;;;;;2.92;1.70;;;8.90;1.00;;;;;;7382528;19;20030;-71
2023/11/08 08:30:31;;;;;;;2.42;1.08;;;9.00;1.00;;;;;;7384155;19;20027;-71
2023/11/08 08:33:01;;;;;;;1.65;1.20;;;9.10;1.00;;;;;;7383175;19;20395;-71
2023/11/08 08:35:32;;;;;;;4.43;1.40;;;9.20;1.00;;;;;;7380581;19;20355;-73
2023/11/08 08:38:02;;;;;;;2.28;1.27;;;9.20;1.00;;;;;;7381564;19;20036;-72
2023/11/08 08:40:32;;;;;;;2.67;0.82;;;9.20;1.00;;;;;;7383393;19;20115;-72
2023/11/08 08:43:05;;;;;;;4.75;1.33;;;9.20;1.00;;;;;;7380646;19;20078;-73
2023/11/08 08:45:35;;;;;;;2.45;1.00;;;9.30;1.00;;;;;;7383134;19;20050;-72
2023/11/08 08:48:06;;;;;;;4.22;1.27;;;9.40;1.00;;;;;;7382045;19;20014;-71
2023/11/08 08:50:36;;;;;;;1.88;0.80;;;9.50;1.00;;;;;;7382861;19;20011;-73
2023/11/08 08:53:06;;;;;;;2.50;0.82;;;9.60;1.00;;;;;;7382468;19;20002;-72
2023/11/08 08:55:36;;;;;;;2.53;1.00;;;9.60;1.00;;;;;;7382392;19;20394;-72
2023/11/08 08:58:12;;;;;;;2.03;0.93;;;9.70;1.00;;;;;;7379938;19;20011;-72
2023/11/08 09:00:42;;;;;;;2.13;0.95;;;9.80;1.00;;;;;;7380350;19;20010;-72
2023/11/08 09:03:14;;;;;;;4.72;0.90;;;9.90;1.00;;;;;;7379341;19;20031;-71
2023/11/08 09:05:45;;;;;;;2.03;0.90;;;9.90;1.00;;;;;;7381043;19;20010;-71
2023/11/08 09:08:15;;;;;;;4.45;1.20;;;9.90;1.00;;;;;;7380086;19;20015;-72
2023/11/08 09:10:46;;;;;;;1.67;0.85;;;10.10;1.00;;;;;;7381067;19;20034;-71
2023/11/08 09:13:19;;;;;;;2.20;0.80;;;10.10;1.00;;;;;;7376858;19;20070;-72
2023/11/08 09:15:49;;;;;;;3.65;1.00;;;10.20;1.00;;;;;;7380573;19;20060;-72
2023/11/08 09:18:19;;;;;;;4.13;0.70;;;10.20;1.00;;;;;;7379723;19;20467;-72
2023/11/08 09:20:50;;;;;;;2.80;0.80;;;10.20;1.00;;;;;;7379195;19;20030;-72
2023/11/08 09:23:20;;;;;;;2.97;0.82;;;10.20;1.00;;;;;;7378150;19;20733;-72
2023/11/08 09:25:50;;;;;;;2.10;0.90;;;10.30;1.00;;;;;;7379578;19;20082;-72
2023/11/08 09:28:23;;;;;;;1.65;0.90;;;10.40;1.00;;;;;;7385986;19;20089;-74
2023/11/08 09:30:54;;;;;;;4.05;1.20;;;10.40;1.00;;;;;;7380693;19;20028;-69
2023/11/08 09:33:25;;;;;;;3.63;1.10;;;10.40;1.00;;;;;;7376846;19;20026;-71
2023/11/08 09:35:55;;;;;;;2.60;0.70;;;10.60;1.00;;;;;;7379005;19;20101;-71
2023/11/08 09:38:27;;;;;;;2.08;0.70;;;10.60;1.00;;;;;;7378851;19;20097;-71
2023/11/08 09:40:58;;;;;;;4.72;1.08;;;10.50;1.00;;;;;;7380341;19;20015;-71
2023/11/08 09:43:33;;;;;;;5.40;0.80;;;10.60;1.00;;;;;;7378598;19;20393;-71
2023/11/08 09:46:05;;;;;;;2.70;0.70;;;10.60;1.00;;;;;;7380902;19;20011;-72
2023/11/08 09:48:37;;;;;;;2.90;0.80;;;10.70;1.00;;;;;;7373633;19;20479;-73
2023/11/08 09:51:08;;;;;;;2.45;0.80;;;10.70;1.00;;;;;;7380330;19;20027;-71
2023/11/08 09:53:38;;;;;;;1.27;0.80;;;10.80;1.00;;;;;;7378033;19;20033;-73
2023/11/08 09:56:10;;;;;;;3.67;1.08;;;10.80;1.00;;;;;;7378733;19;20003;-72
2023/11/08 09:58:45;;;;;;;2.00;0.75;;;10.80;1.00;;;;;;7379219;19;20034;-72
2023/11/08 10:01:18;;;;;;;3.08;0.93;;;10.90;1.00;;;;;;7377204;19;20078;-72
2023/11/08 10:03:48;;;;;;;2.13;1.00;;;11.10;1.00;;;;;;7377615;19;20352;-72
2023/11/08 10:06:19;;;;;;;2.33;0.88;;;11.30;1.00;;;;;;7378436;19;20010;-71
2023/11/08 10:08:49;;;;;;;3.63;1.02;;;11.20;1.00;;;;;;7378042;19;20074;-71
2023/11/08 10:11:21;;;;;;;1.45;0.90;;;11.20;1.00;;;;;;7379013;19;20018;-71
2023/11/08 10:13:58;;;;;;;1.35;0.88;;;11.00;1.00;;;;;;7378941;19;20011;-71
2023/11/08 10:16:28;;;;;;;2.38;1.00;;;11.10;1.00;;;;;;7377869;19;20090;-71
2023/11/08 10:19:01;;;;;;;4.07;1.67;;;11.00;1.00;;;;;;7378655;19;20021;-71
2023/11/08 10:21:51;;;;;;;4.40;1.30;;;11.10;1.00;;;;;;6865895;19;2003863;-73
2023/11/08 10:24:23;;;;;;;2.55;0.85;;;11.10;1.00;;;;;;7377971;19;20014;-72
2023/11/08 10:26:53;;;;;;;2.10;0.95;;;11.10;1.00;;;;;;7376611;19;20014;-70
2023/11/08 10:29:28;;;;;;;46.20;33.05;;;11.30;1.00;;;;;;7378362;19;20498;-71
2023/11/08 10:31:59;;;;;;;2.88;1.30;;;11.30;1.00;;;;;;7377366;19;20077;-71
2023/11/08 10:34:29;;;;;;;4.13;1.45;;;11.30;1.00;;;;;;7376327;19;20070;-71
2023/11/08 10:36:59;;;;;;;4.38;2.65;;;11.10;1.00;;;;;;7377194;19;20436;-71
2023/11/08 10:39:29;;;;;;;10.40;7.78;;;11.30;1.00;;;;;;7378036;19;20018;-72
2023/11/08 10:41:59;;;;;;;1.48;0.75;;;11.40;1.00;;;;;;7377237;19;20767;-72
2023/11/08 10:44:32;;;;;;;3.38;1.15;;;11.30;1.00;;;;;;7376462;19;20102;-71
2023/11/08 10:47:02;;;;;;;2.85;0.93;;;11.20;1.00;;;;;;7376699;19;20039;-72
2023/11/08 10:49:33;;;;;;;2.60;1.10;;;11.20;1.00;;;;;;7377480;19;20089;-71
2023/11/08 10:52:06;;;;;;;3.53;1.17;;;11.00;1.00;;;;;;7377144;19;20014;-72
2023/11/08 10:54:38;;;;;;;2.90;1.00;;;11.10;1.00;;;;;;7377056;19;20050;-71
2023/11/08 10:57:09;;;;;;;2.88;1.25;;;11.10;1.00;;;;;;7377377;19;20526;-72
2023/11/08 10:59:45;;;;;;;3.50;1.00;;;11.10;1.00;;;;;;7374199;19;20003;-71
2023/11/08 11:02:27;;;;;;;1.77;0.80;;;11.00;1.00;;;;;;7372413;19;20010;-72
2023/11/08 11:05:02;;;;;;;2.72;1.02;;;11.10;1.00;;;;;;7376427;19;20007;-72
2023/11/08 11:07:33;;;;;;;3.35;1.02;;;11.20;1.00;;;;;;7375745;19;20026;-72
2023/11/08 11:10:04;;;;;;;1.85;1.23;;;11.20;1.00;;;;;;7376066;19;20027;-72
2023/11/08 11:12:44;;;;;;;2.40;0.93;;;11.30;1.00;;;;;;7375003;19;20017;-72
2023/11/08 11:15:23;;;;;;;3.33;1.08;;;11.30;1.00;;;;;;7374027;19;20011;-73
2023/11/08 11:17:58;;;;;;;2.03;0.90;;;11.50;1.00;;;;;;7376447;19;20018;-72
2023/11/08 11:20:34;;;;;;;1.92;0.90;;;11.60;1.00;;;;;;7381434;19;20022;-72
2023/11/08 11:23:04;;;;;;;3.00;1.15;;;11.70;1.00;;;;;;7381644;19;20011;-71
2023/11/08 11:25:50;;;;;;;4.57;2.63;;;11.50;1.00;;;;;;7383026;19;20042;-72
2023/11/08 11:28:51;;;;;;;4.22;2.78;;;11.40;1.00;;;;;;6871678;19;2004040;-72
2023/11/08 11:31:40;;;;;;;21.08;13.70;;;11.50;1.00;;;;;;6870283;19;2003842;-72
2023/11/08 11:34:46;;;;;;;1.90;0.80;;;11.40;1.00;;;;;;7378712;19;20005;-72
2023/11/08 11:37:18;;;;;;;2.60;0.70;;;11.30;1.00;;;;;;6869517;19;2004469;-72
2023/11/08 11:40:14;;;;;;;4.22;0.90;;;11.30;1.00;;;;;;7381973;19;20473;-72
2023/11/08 11:42:48;;;;;;;1.63;0.80;;;11.30;1.00;;;;;;7379926;19;20010;-72
2023/11/08 11:45:20;;;;;;;1.77;0.98;;;11.30;1.00;;;;;;7381137;19;20081;-73
2023/11/08 11:47:56;;;;;;;2.85;0.80;;;11.40;1.00;;;;;;7382624;19;20375;-72
2023/11/08 11:50:27;;;;;;;1.02;0.60;;;11.40;1.00;;;;;;7383645;19;20451;-72
2023/11/08 11:52:57;;;;;;;1.92;0.93;;;11.40;1.00;;;;;;7381117;19;20011;-72
2023/11/08 11:55:27;;;;;;;1.67;0.63;;;11.60;1.00;;;;;;7381820;19;20328;-72
2023/11/08 11:57:58;;;;;;;1.58;0.68;;;11.60;1.00;;;;;;7381640;19;20014;-72
2023/11/08 12:00:29;;;;;;;2.45;0.70;;;11.60;1.00;;;;;;7383324;19;20055;-72
2023/11/08 12:03:03;;;;;;;3.10;0.88;;;11.60;1.00;;;;;;7383246;19;20543;-72
2023/11/08 12:05:33;;;;;;;5.38;0.75;;;11.40;1.00;;;;;;7382637;19;20078;-71
2023/11/08 12:08:03;;;;;;;1.77;0.65;;;11.50;1.00;;;;;;7382076;19;21887;-72
2023/11/08 12:10:33;;;;;;;2.75;2.30;;;11.60;1.00;;;;;;7380760;19;20018;-71
2023/11/08 12:13:03;;;;;;;3.08;1.05;;;11.60;1.00;;;;;;7382022;19;20018;-71
2023/11/08 12:15:34;;;;;;;2.83;0.57;;;11.60;1.00;;;;;;7381535;19;20007;-72
2023/11/08 12:18:11;;;;;;;2.10;0.70;;;11.60;1.00;;;;;;7381250;19;20031;-72
2023/11/08 12:20:45;;;;;;;0.85;0.50;;;11.70;1.00;;;;;;7382606;19;20086;-72
2023/11/08 12:23:15;;;;;;;2.15;0.90;;;11.90;1.00;;;;;;7377244;19;20453;-72
2023/11/08 12:25:46;;;;;;;1.27;0.43;;;12.00;1.00;;;;;;7381114;19;20086;-72
2023/11/08 12:28:16;;;;;;;3.53;0.90;;;12.30;1.00;;;;;;7379774;19;20074;-73
2023/11/08 12:30:46;;;;;;;5.25;0.50;;;12.50;1.00;;;;;;7379097;19;20036;-71
2023/11/08 12:33:19;;;;;;;0.90;0.60;;;12.70;1.00;;;;;;7380182;19;20021;-71
2023/11/08 12:35:51;;;;;;;;;;;12.40;1.00;;;;;;7381401;19;20030;-72
2023/11/08 12:38:21;;;;;;;0.65;0.40;;;12.60;1.00;;;;;;7381128;19;20331;-71
2023/11/08 12:41:05;;;;;;;1.25;0.40;;;12.80;1.00;;;;;;7381355;19;20031;-72
2023/11/08 12:43:36;;;;;;;0.88;0.30;;;12.70;1.00;;;;;;7378500;19;20053;-72
2023/11/08 12:46:26;;;;;;;3.20;0.85;;;12.70;1.00;;;;;;6869825;19;2004828;-73
2023/11/08 12:49:17;;;;;;;;;;;12.70;1.00;;;;;;7381844;19;20090;-73
2023/11/08 12:51:48;;;;;;;0.85;0.47;;;12.80;1.00;;;;;;7382899;19;19915;-73
2023/11/08 12:54:19;;;;;;;0.55;0.30;;;12.60;1.00;;;;;;7381101;19;20140;-72
2023/11/08 12:56:49;;;;;;;0.85;0.40;;;12.60;1.00;;;;;;7383672;19;20373;-73
2023/11/08 12:59:21;;;;;;;2.25;0.20;;;12.50;1.00;;;;;;7378728;19;20035;-70
2023/11/08 13:01:52;;;;;;;3.28;1.23;;;12.40;1.00;;;;;;7379836;19;20045;-72
2023/11/08 13:04:26;;;;;;;0.75;0.32;;;12.40;1.00;;;;;;7379690;19;20074;-73
2023/11/08 13:06:56;;;;;;;1.60;0.47;;;12.30;1.00;;;;;;7381335;19;20024;-73
2023/11/08 13:09:28;;;;;;;2.10;0.70;;;12.20;1.00;;;;;;7379924;19;20331;-74
2023/11/08 13:11:59;;;;;;;1.20;0.28;;;12.10;1.00;;;;;;7379111;19;20011;-72
2023/11/08 13:14:29;;;;;;;2.45;0.68;;;12.10;1.00;;;;;;7378603;19;20114;-71
2023/11/08 13:16:59;;;;;;;1.58;0.52;;;12.10;1.00;;;;;;7378753;19;20748;-71
2023/11/08 13:19:33;;;;;;;1.30;0.40;;;11.90;1.00;;;;;;7380009;19;20011;-70
2023/11/08 13:22:03;;;;;;;0.90;0.60;;;12.00;1.00;;;;;;7379529;19;20044;-71
2023/11/08 13:24:33;;;;;;;0.57;0.50;;;12.00;1.00;;;;;;7377626;19;20093;-72
2023/11/08 13:27:04;;;;;;;0.70;0.40;;;12.00;1.00;;;;;;7378735;19;20031;-71
2023/11/08 13:29:34;;;;;;;1.33;0.60;;;11.90;1.00;;;;;;7378495;19;20519;-72